createdAt,value
2023-02-11T00:01:38.137Z,101568.11
2023-02-11T00:04:07.505Z,101560.90
2023-02-11T00:06:36.635Z,101555.00
2023-02-11T00:09:10.497Z,101547.11
2023-02-11T00:11:42.287Z,101537.34
2023-02-11T00:14:10.396Z,101530.35
2023-02-11T00:16:38.984Z,101528.41
2023-02-11T00:19:07.632Z,101528.08
2023-02-11T00:21:38.920Z,101528.98
2023-02-11T00:24:07.352Z,101528.92
2023-02-11T00:26:36.663Z,101523.70
2023-02-11T00:29:06.175Z,101527.20
2023-02-11T00:31:36.119Z,101524.64
2023-02-11T00:34:07.580Z,101526.54
2023-02-11T00:36:36.745Z,101516.54
2023-02-11T00:39:05.867Z,101507.52
2023-02-11T00:41:38.885Z,101504.01
2023-02-11T00:44:07.679Z,101501.40
2023-02-11T00:46:37.451Z,101502.91
2023-02-11T00:49:06.684Z,101494.75
2023-02-11T00:51:36.335Z,101497.60
2023-02-11T00:54:05.643Z,101496.82
2023-02-11T00:56:34.921Z,101493.31
2023-02-11T00:59:03.890Z,101499.89
2023-02-11T01:01:34.882Z,101499.47
2023-02-11T01:04:03.508Z,101495.80
2023-02-11T01:06:32.076Z,101497.69
2023-02-11T01:09:00.595Z,101496.19
2023-02-11T01:11:34.370Z,101494.95
2023-02-11T01:14:03.520Z,101491.16
2023-02-11T01:16:32.200Z,101495.39
2023-02-11T01:19:00.586Z,101502.84
2023-02-11T01:21:29.930Z,101505.85
2023-02-11T01:23:58.452Z,101508.63
2023-02-11T01:26:26.991Z,101508.14
2023-02-11T01:28:56.284Z,101512.88
2023-02-11T01:31:24.881Z,101513.11
2023-02-11T01:33:53.899Z,101509.52
2023-02-11T01:36:22.937Z,101512.67
2023-02-11T01:38:51.341Z,101514.44
2023-02-11T01:41:22.918Z,101513.43
2023-02-11T01:43:51.464Z,101517.01
2023-02-11T01:46:31.336Z,101518.20
2023-02-11T01:49:09.975Z,101522.20
2023-02-11T01:51:41.775Z,101521.33
2023-02-11T01:54:30.434Z,101522.61
2023-02-11T01:57:18.275Z,101521.77
2023-02-11T02:00:13.472Z,101516.71
2023-02-11T02:03:02.365Z,101522.90
2023-02-11T02:05:44.651Z,101525.50
2023-02-11T02:08:36.175Z,101525.27
2023-02-11T02:11:07.717Z,101527.69
2023-02-11T02:13:39.981Z,101532.96
2023-02-11T02:16:15.497Z,101531.96
2023-02-11T02:18:51.697Z,101536.02
2023-02-11T02:21:46.468Z,101540.84
2023-02-11T02:24:56.680Z,101541.67
2023-02-11T02:27:34.370Z,101538.11
2023-02-11T02:30:24.386Z,101542.63
2023-02-11T02:33:16.771Z,101548.88
2023-02-11T02:36:04.532Z,101552.88
2023-02-11T02:38:33.297Z,101550.56
2023-02-11T02:41:11.288Z,101549.53
2023-02-11T02:43:46.629Z,101548.05
2023-02-11T02:46:22.081Z,101549.18
2023-02-11T02:48:51.079Z,101549.80
2023-02-11T02:51:57.082Z,101547.31
2023-02-11T02:54:54.650Z,101548.95
2023-02-11T02:57:45.494Z,101541.81
2023-02-11T03:00:48.826Z,101535.64
2023-02-11T03:03:25.295Z,101531.62
2023-02-11T03:06:04.681Z,101527.42
2023-02-11T03:08:42.979Z,101525.77
2023-02-11T03:11:11.730Z,101533.20
2023-02-11T03:13:40.984Z,101532.58
2023-02-11T03:16:20.333Z,101537.77
2023-02-11T03:18:59.998Z,101532.16
2023-02-11T03:21:29.262Z,101524.87
2023-02-11T03:24:00.890Z,101524.61
2023-02-11T03:26:57.533Z,101525.10
2023-02-11T03:29:29.173Z,101524.12
2023-02-11T03:32:03.189Z,101521.64
2023-02-11T03:34:48.841Z,101515.23
2023-02-11T03:37:22.583Z,101512.00
2023-02-11T03:39:58.195Z,101510.36
2023-02-11T03:42:27.706Z,101509.72
2023-02-11T03:45:05.316Z,101505.59
2023-02-11T03:47:36.331Z,101495.80
2023-02-11T03:50:06.082Z,101499.55
2023-02-11T03:52:35.651Z,101494.27
2023-02-11T03:55:07.361Z,101489.73
2023-02-11T03:57:36.564Z,101491.10
2023-02-11T04:00:05.888Z,101496.52
2023-02-11T04:02:42.658Z,101495.45
2023-02-11T04:05:15.398Z,101493.13
2023-02-11T04:07:44.110Z,101491.75
2023-02-11T04:10:14.258Z,101498.39
2023-02-11T04:12:43.076Z,101506.48
2023-02-11T04:15:12.140Z,101504.83
2023-02-11T04:17:40.862Z,101501.36
2023-02-11T04:20:10.182Z,101503.84
2023-02-11T04:22:38.821Z,101502.50
2023-02-11T04:25:08.152Z,101501.95
2023-02-11T04:27:37.564Z,101496.61
2023-02-11T04:30:06.920Z,101495.75
2023-02-11T04:32:35.991Z,101499.98
2023-02-11T04:35:05.686Z,101503.03
2023-02-11T04:37:34.442Z,101499.67
2023-02-11T04:40:03.349Z,101501.70
2023-02-11T04:42:38.253Z,101501.67
2023-02-11T04:45:08.176Z,101496.20
2023-02-11T04:47:38.246Z,101493.94
2023-02-11T04:50:07.196Z,101494.46
2023-02-11T04:52:36.027Z,101486.90
2023-02-11T04:55:05.376Z,101481.96
2023-02-11T04:57:34.080Z,101475.55
2023-02-11T05:00:02.600Z,101475.23
2023-02-11T05:02:34.385Z,101474.37
2023-02-11T05:05:03.143Z,101480.73
2023-02-11T05:07:32.595Z,101481.10
2023-02-11T05:10:01.134Z,101478.98
2023-02-11T05:12:30.164Z,101475.30
2023-02-11T05:14:58.790Z,101471.83
2023-02-11T05:17:30.185Z,101475.83
2023-02-11T05:19:59.141Z,101473.51
2023-02-11T05:22:27.838Z,101471.82
2023-02-11T05:24:56.922Z,101467.90
2023-02-11T05:27:25.518Z,101465.55
2023-02-11T05:29:54.083Z,101465.51
2023-02-11T05:32:22.721Z,101458.64
2023-02-11T05:34:51.780Z,101453.88
2023-02-11T05:37:20.395Z,101457.33
2023-02-11T05:39:49.041Z,101456.73
2023-02-11T05:42:19.873Z,101455.16
2023-02-11T05:44:50.537Z,101451.56
2023-02-11T05:47:20.091Z,101444.77
2023-02-11T05:49:48.775Z,101444.31
2023-02-11T05:52:17.363Z,101436.48
2023-02-11T05:54:46.436Z,101435.12
2023-02-11T05:57:15.358Z,101422.71
2023-02-11T05:59:44.579Z,101422.83
2023-02-11T06:02:14.098Z,101414.33
2023-02-11T06:04:44.553Z,101415.87
2023-02-11T06:07:14.825Z,101420.63
2023-02-11T06:09:43.408Z,101409.81
2023-02-11T06:12:12.651Z,101407.52
2023-02-11T06:14:42.124Z,101405.34
2023-02-11T06:17:12.393Z,101400.00
2023-02-11T06:19:44.821Z,101398.72
2023-02-11T06:22:13.693Z,101398.66
2023-02-11T06:25:00.355Z,101399.72
2023-02-11T06:27:31.799Z,101400.02
2023-02-11T06:30:00.327Z,101394.84
2023-02-11T06:32:43.292Z,101397.53
2023-02-11T06:35:13.692Z,101391.11
2023-02-11T06:37:43.349Z,101387.92
2023-02-11T06:40:12.782Z,101382.19
2023-02-11T06:42:41.959Z,101376.79
2023-02-11T06:45:11.320Z,101367.52
2023-02-11T06:47:41.819Z,101365.65
2023-02-11T06:50:12.707Z,101360.33
2023-02-11T06:52:41.842Z,101358.29
2023-02-11T06:55:10.721Z,101356.74
2023-02-11T06:57:42.531Z,101360.63
2023-02-11T07:00:12.073Z,101361.05
2023-02-11T07:02:40.777Z,101367.40
2023-02-11T07:05:10.310Z,101364.66
2023-02-11T07:07:38.900Z,101360.38
2023-02-11T07:10:08.593Z,101358.59
2023-02-11T07:12:41.612Z,101357.48
2023-02-11T07:15:11.608Z,101350.17
2023-02-11T07:17:40.346Z,101330.92
2023-02-11T07:20:12.724Z,101315.10
2023-02-11T07:22:42.248Z,101307.08
2023-02-11T07:25:11.151Z,101310.55
2023-02-11T07:27:44.746Z,101302.56
2023-02-11T07:30:14.124Z,101298.52
2023-02-11T07:32:43.032Z,101295.45
2023-02-11T07:35:11.668Z,101297.39
2023-02-11T07:37:41.857Z,101305.81
2023-02-11T07:40:10.939Z,101302.74
2023-02-11T07:42:41.970Z,101307.86
2023-02-11T07:45:11.471Z,101316.08
2023-02-11T07:47:42.954Z,101321.69
2023-02-11T07:50:11.816Z,101324.53
2023-02-11T07:52:40.603Z,101328.21
2023-02-11T07:55:10.355Z,101328.88
2023-02-11T07:57:39.549Z,101335.81
2023-02-11T08:00:09.715Z,101346.83
2023-02-11T08:02:41.403Z,101355.09
2023-02-11T08:05:09.992Z,101361.21
2023-02-11T08:07:38.466Z,101366.82
2023-02-11T08:10:07.500Z,101379.11
2023-02-11T08:12:36.602Z,101386.63
2023-02-11T08:15:05.541Z,101395.02
2023-02-11T08:17:36.276Z,101398.91
2023-02-11T08:20:06.740Z,101393.66
2023-02-11T08:22:35.653Z,101396.61
2023-02-11T08:25:05.213Z,101399.23
2023-02-11T08:27:34.644Z,101408.20
2023-02-11T08:30:04.717Z,101413.50
2023-02-11T08:32:34.819Z,101424.43
2023-02-11T08:35:03.579Z,101429.27
2023-02-11T08:37:34.588Z,101432.27
2023-02-11T08:40:04.229Z,101435.05
2023-02-11T08:42:33.538Z,101445.30
2023-02-11T08:45:02.908Z,101443.98
2023-02-11T08:47:31.801Z,101452.14
2023-02-11T08:50:00.482Z,101452.73
2023-02-11T08:52:29.253Z,101458.36
2023-02-11T08:54:59.098Z,101464.21
2023-02-11T08:57:27.928Z,101464.60
2023-02-11T08:59:56.652Z,101465.77
2023-02-11T09:02:25.466Z,101460.30
2023-02-11T09:04:54.490Z,101467.31
2023-02-11T09:07:23.030Z,101468.41
2023-02-11T09:09:52.215Z,101474.25
2023-02-11T09:12:21.240Z,101467.89
2023-02-11T09:14:50.118Z,101463.60
2023-02-11T09:17:18.820Z,101465.30
2023-02-11T09:19:47.435Z,101460.04
2023-02-11T09:22:16.011Z,101461.75
2023-02-11T09:24:47.730Z,101459.23
2023-02-11T09:27:17.015Z,101458.55
2023-02-11T09:29:45.585Z,101455.96
2023-02-11T09:32:14.615Z,101454.98
2023-02-11T09:34:43.282Z,101454.61
2023-02-11T09:37:12.136Z,101452.06
2023-02-11T09:39:41.294Z,101447.79
2023-02-11T09:42:12.884Z,101441.27
2023-02-11T09:44:42.713Z,101437.45
2023-02-11T09:47:31.102Z,101428.50
2023-02-11T09:50:30.641Z,101425.46
2023-02-11T09:53:18.436Z,101420.48
2023-02-11T09:55:48.228Z,101413.68
2023-02-11T09:58:21.453Z,101407.36
2023-02-11T10:01:32.326Z,101400.70
2023-02-11T10:04:22.948Z,101397.83
2023-02-11T10:06:56.697Z,101390.94
2023-02-11T10:09:32.580Z,101387.20
2023-02-11T10:12:07.633Z,101379.98
2023-02-11T10:14:58.297Z,101377.86
2023-02-11T10:17:47.411Z,101377.09
2023-02-11T10:20:37.472Z,101379.16
2023-02-11T10:23:26.134Z,101380.87
2023-02-11T10:25:56.882Z,101378.74
2023-02-11T10:28:33.713Z,101377.87
2023-02-11T10:31:10.258Z,101378.83
2023-02-11T10:33:44.398Z,101370.84
2023-02-11T10:36:13.866Z,101365.98
2023-02-11T10:38:43.139Z,101361.73
2023-02-11T10:41:18.209Z,101363.33
2023-02-11T10:43:46.764Z,101364.05
2023-02-11T10:46:21.369Z,101366.81
2023-02-11T10:48:52.972Z,101360.59
2023-02-11T10:51:26.546Z,101358.75
2023-02-11T10:54:19.621Z,101356.63
2023-02-11T10:56:53.707Z,101352.09
2023-02-11T10:59:28.586Z,101349.92
2023-02-11T11:02:01.603Z,101338.80
2023-02-11T11:04:30.774Z,101339.04
2023-02-11T11:07:19.489Z,101335.52
2023-02-11T11:10:03.353Z,101328.70
2023-02-11T11:12:46.094Z,101323.57
2023-02-11T11:15:22.752Z,101320.98
2023-02-11T11:18:24.338Z,101312.00
2023-02-11T11:21:24.541Z,101310.36
2023-02-11T11:24:00.460Z,101308.77
2023-02-11T11:26:43.068Z,101306.77
2023-02-11T11:29:30.731Z,101300.43
2023-02-11T11:32:05.792Z,101301.02
2023-02-11T11:34:39.521Z,101300.02
2023-02-11T11:37:47.069Z,101285.48
2023-02-11T11:40:15.987Z,101283.51
2023-02-11T11:42:45.165Z,101284.23
2023-02-11T11:45:23.177Z,101276.08
2023-02-11T11:47:53.340Z,101274.90
2023-02-11T11:50:42.366Z,101268.09
2023-02-11T11:53:21.295Z,101267.35
2023-02-11T11:55:52.043Z,101267.71
2023-02-11T11:58:22.606Z,101263.04
2023-02-11T12:01:15.764Z,101265.59
2023-02-11T12:04:33.348Z,101272.27
2023-02-11T12:07:31.133Z,101267.95
2023-02-11T12:10:22.384Z,101263.73
2023-02-11T12:13:04.175Z,101256.61
2023-02-11T12:15:34.976Z,101252.67
2023-02-11T12:18:07.158Z,101249.94
2023-02-11T12:20:38.958Z,101248.15
2023-02-11T12:23:22.284Z,101245.82
2023-02-11T12:26:01.291Z,101234.05
2023-02-11T12:28:35.097Z,101234.16
2023-02-11T12:31:27.055Z,101231.62
2023-02-11T12:34:15.177Z,101229.84
2023-02-11T12:37:03.097Z,101224.60
2023-02-11T12:39:44.190Z,101224.63
2023-02-11T12:42:46.788Z,101230.92
2023-02-11T12:45:43.947Z,101228.09
2023-02-11T12:48:23.126Z,101228.11
2023-02-11T12:51:24.767Z,101225.09
2023-02-11T12:54:22.752Z,101218.27
2023-02-11T12:56:59.505Z,101210.80
2023-02-11T12:59:56.788Z,101201.11
2023-02-11T13:02:34.884Z,101196.73
2023-02-11T13:05:20.414Z,101194.10
2023-02-11T13:07:51.132Z,101189.91
2023-02-11T13:10:28.528Z,101186.88
2023-02-11T13:13:16.178Z,101185.38
2023-02-11T13:16:00.320Z,101176.27
2023-02-11T13:18:41.041Z,101170.65
2023-02-11T13:21:26.629Z,101163.11
2023-02-11T13:24:11.359Z,101161.85
2023-02-11T13:27:01.878Z,101152.69
2023-02-11T13:29:44.017Z,101146.52
2023-02-11T13:32:15.007Z,101140.48
2023-02-11T13:34:44.097Z,101135.27
2023-02-11T13:37:32.277Z,101127.69
2023-02-11T13:40:02.045Z,101122.80
2023-02-11T13:42:31.592Z,101116.47
2023-02-11T13:45:00.470Z,101111.38
2023-02-11T13:47:32.166Z,101104.52
2023-02-11T13:50:02.363Z,101094.99
2023-02-11T13:52:37.849Z,101092.67
2023-02-11T13:55:22.189Z,101087.46
2023-02-11T13:58:08.289Z,101078.50
2023-02-11T14:00:38.729Z,101075.65
2023-02-11T14:03:42.280Z,101066.59
2023-02-11T14:06:33.077Z,101062.81
2023-02-11T14:09:16.306Z,101053.46
2023-02-11T14:11:48.024Z,101047.03
2023-02-11T14:14:17.671Z,101043.69
2023-02-11T14:16:59.288Z,101042.70
2023-02-11T14:19:36.474Z,101041.41
2023-02-11T14:22:16.870Z,101032.73
2023-02-11T14:24:49.037Z,101029.83
2023-02-11T14:27:31.495Z,101024.34
2023-02-11T14:30:12.811Z,101018.02
2023-02-11T14:32:49.960Z,101013.64
2023-02-11T14:35:41.707Z,101003.13
2023-02-11T14:38:53.140Z,100995.40
2023-02-11T14:41:30.151Z,100988.33
2023-02-11T14:44:01.310Z,100978.29
2023-02-11T14:46:30.965Z,100974.59
2023-02-11T14:49:01.893Z,100972.40
2023-02-11T14:51:39.715Z,100970.89
2023-02-11T14:54:15.545Z,100960.38
2023-02-11T14:56:45.163Z,100954.27
2023-02-11T14:59:22.006Z,100955.73
2023-02-11T15:01:51.649Z,100950.84
2023-02-11T15:04:31.171Z,100949.23
2023-02-11T15:07:04.538Z,100938.57
2023-02-11T15:09:37.948Z,100928.73
2023-02-11T15:12:19.094Z,100921.09
2023-02-11T15:14:49.322Z,100910.11
2023-02-11T15:17:22.792Z,100904.05
2023-02-11T15:19:56.564Z,100893.06
2023-02-11T15:22:28.210Z,100887.77
2023-02-11T15:25:11.195Z,100880.23
2023-02-11T15:27:41.637Z,100879.60
2023-02-11T15:30:23.235Z,100872.30
2023-02-11T15:32:59.026Z,100864.15
2023-02-11T15:35:31.741Z,100855.73
2023-02-11T15:38:01.303Z,100850.36
2023-02-11T15:40:33.490Z,100842.31
2023-02-11T15:43:03.954Z,100837.36
2023-02-11T15:45:39.020Z,100832.77
2023-02-11T15:48:19.912Z,100828.58
2023-02-11T15:50:51.896Z,100818.55
2023-02-11T15:53:24.525Z,100807.91
2023-02-11T15:55:58.901Z,100799.52
2023-02-11T15:58:27.727Z,100784.27
2023-02-11T16:01:00.240Z,100775.67
2023-02-11T16:03:32.482Z,100770.39
2023-02-11T16:06:21.577Z,100756.35
2023-02-11T16:09:06.856Z,100745.73
2023-02-11T16:11:38.976Z,100730.54
2023-02-11T16:14:27.833Z,100717.93
2023-02-11T16:16:58.016Z,100704.77
2023-02-11T16:19:27.064Z,100684.45
2023-02-11T16:21:57.142Z,100670.82
2023-02-11T16:24:28.502Z,100659.34
2023-02-11T16:26:59.988Z,100644.23
2023-02-11T16:29:32.067Z,100632.02
2023-02-11T16:32:19.848Z,100620.34
2023-02-11T16:34:48.927Z,100605.89
2023-02-11T16:37:17.711Z,100591.71
2023-02-11T16:39:46.933Z,100575.66
2023-02-11T16:42:15.774Z,100557.10
2023-02-11T16:44:44.964Z,100541.52
2023-02-11T16:47:24.731Z,100524.84
2023-02-11T16:49:53.980Z,100516.70
2023-02-11T16:52:22.882Z,100497.16
2023-02-11T16:54:55.629Z,100484.17
2023-02-11T16:57:26.938Z,100471.68
2023-02-11T16:59:57.284Z,100449.86
2023-02-11T17:02:31.546Z,100427.04
2023-02-11T17:05:02.219Z,100409.01
2023-02-11T17:07:33.379Z,100387.36
2023-02-11T17:10:02.742Z,100372.41
2023-02-11T17:12:31.852Z,100356.66
2023-02-11T17:15:00.934Z,100341.69
2023-02-11T17:17:31.079Z,100323.20
2023-02-11T17:20:00.639Z,100299.30
2023-02-11T17:22:29.780Z,100288.17
2023-02-11T17:24:59.169Z,100273.69
2023-02-11T17:27:27.818Z,100252.05
2023-02-11T17:29:57.147Z,100237.83
2023-02-11T17:32:26.299Z,100225.73
2023-02-11T17:34:55.527Z,100211.36
2023-02-11T17:37:24.400Z,100198.55
2023-02-11T17:39:53.808Z,100182.20
2023-02-11T17:42:22.717Z,100164.91
2023-02-11T17:44:52.014Z,100150.86
2023-02-11T17:47:20.954Z,100129.12
2023-02-11T17:49:49.636Z,100113.69
2023-02-11T17:52:19.698Z,100092.27
2023-02-11T17:54:48.970Z,100076.59
2023-02-11T17:57:18.571Z,100056.33
2023-02-11T17:59:47.933Z,100035.41
2023-02-11T18:02:16.991Z,100021.39
2023-02-11T18:04:45.927Z,100005.58
2023-02-11T18:07:15.674Z,99984.91
2023-02-11T18:09:44.881Z,99964.15
2023-02-11T18:12:14.255Z,99949.92
2023-02-11T18:14:43.048Z,99934.88
2023-02-11T18:17:12.993Z,99922.56
2023-02-11T18:19:42.512Z,99905.52
2023-02-11T18:22:11.235Z,99893.30
2023-02-11T18:24:40.665Z,99879.71
2023-02-11T18:27:10.208Z,99868.73
2023-02-11T18:29:41.058Z,99854.52
2023-02-11T18:32:10.116Z,99834.19
2023-02-11T18:34:41.004Z,99792.34
2023-02-11T18:37:10.504Z,99777.65
2023-02-11T18:39:38.932Z,99761.48
2023-02-11T18:42:07.226Z,99742.51
2023-02-11T18:44:37.265Z,99726.58
2023-02-11T18:47:06.112Z,99708.08
2023-02-11T18:49:36.450Z,99691.77
2023-02-11T18:52:05.838Z,99674.73
2023-02-11T18:54:34.901Z,99659.33
2023-02-11T18:57:03.979Z,99642.11
2023-02-11T18:59:34.245Z,99621.67
2023-02-11T19:02:03.188Z,99603.70
2023-02-11T19:04:31.929Z,99593.08
2023-02-11T19:07:04.229Z,99581.61
2023-02-11T19:09:37.841Z,99573.50
2023-02-11T19:12:08.460Z,99561.23
2023-02-11T19:14:40.417Z,99547.88
2023-02-11T19:17:12.374Z,99544.75
2023-02-11T19:19:41.804Z,99532.36
2023-02-11T19:22:11.118Z,99520.46
2023-02-11T19:24:40.204Z,99511.48
2023-02-11T19:27:11.867Z,99496.73
2023-02-11T19:29:40.644Z,99487.02
2023-02-11T19:32:10.603Z,99472.95
2023-02-11T19:34:41.826Z,99464.23
2023-02-11T19:37:13.097Z,99458.95
2023-02-11T19:39:43.129Z,99451.20
2023-02-11T19:42:14.937Z,99442.85
2023-02-11T19:44:44.637Z,99428.73
2023-02-11T19:47:16.697Z,99419.52
2023-02-11T19:49:45.936Z,99416.23
2023-02-11T19:52:14.920Z,99411.81
2023-02-11T19:54:44.017Z,99416.11
2023-02-11T19:57:14.885Z,99410.78
2023-02-11T19:59:43.504Z,99409.96
2023-02-11T20:02:13.348Z,99403.59
2023-02-11T20:04:43.229Z,99408.04
2023-02-11T20:07:12.080Z,99414.42
2023-02-11T20:09:42.759Z,99414.81
2023-02-11T20:12:13.444Z,99417.13
2023-02-11T20:14:42.982Z,99423.16
2023-02-11T20:17:11.972Z,99424.13
2023-02-11T20:19:40.554Z,99431.25
2023-02-11T20:22:09.318Z,99439.42
2023-02-11T20:24:38.661Z,99440.69
2023-02-11T20:27:08.671Z,99437.80
2023-02-11T20:29:38.702Z,99439.90
2023-02-11T20:32:08.463Z,99439.59
2023-02-11T20:34:37.317Z,99439.53
2023-02-11T20:37:07.314Z,99439.89
2023-02-11T20:39:37.847Z,99449.60
2023-02-11T20:42:08.987Z,99451.47
2023-02-11T20:44:38.873Z,99452.80
2023-02-11T20:47:07.981Z,99449.28
2023-02-11T20:49:37.008Z,99458.03
2023-02-11T20:52:06.134Z,99453.39
2023-02-11T20:54:35.274Z,99458.39
2023-02-11T20:57:07.426Z,99456.81
2023-02-11T20:59:37.507Z,99459.85
2023-02-11T21:02:10.602Z,99462.10
2023-02-11T21:04:39.770Z,99463.28
2023-02-11T21:07:08.328Z,99465.95
2023-02-11T21:09:37.893Z,99467.98
2023-02-11T21:12:09.456Z,99469.15
2023-02-11T21:14:39.217Z,99479.15
2023-02-11T21:17:08.675Z,99474.12
2023-02-11T21:19:38.113Z,99483.55
2023-02-11T21:22:07.103Z,99484.90
2023-02-11T21:24:35.682Z,99482.48
2023-02-11T21:27:07.890Z,99485.27
2023-02-11T21:29:52.808Z,99481.77
2023-02-11T21:32:22.444Z,99487.98
2023-02-11T21:34:51.384Z,99481.39
2023-02-11T21:37:21.423Z,99480.55
2023-02-11T21:39:50.267Z,99482.07
2023-02-11T21:42:18.852Z,99484.14
2023-02-11T21:44:48.357Z,99480.56
2023-02-11T21:47:16.943Z,99478.18
2023-02-11T21:49:46.332Z,99480.65
2023-02-11T21:52:14.999Z,99479.02
2023-02-11T21:54:49.793Z,99477.88
2023-02-11T21:57:18.366Z,99473.66
2023-02-11T21:59:47.012Z,99475.05
2023-02-11T22:02:15.327Z,99469.88
2023-02-11T22:04:45.173Z,99469.64
2023-02-11T22:07:13.718Z,99469.73
2023-02-11T22:09:43.325Z,99466.11
2023-02-11T22:12:12.240Z,99463.88
2023-02-11T22:14:40.897Z,99460.08
2023-02-11T22:17:10.321Z,99459.67
2023-02-11T22:19:39.464Z,99457.98
2023-02-11T22:22:09.586Z,99454.80
2023-02-11T22:24:38.667Z,99455.55
2023-02-11T22:27:10.770Z,99459.45
2023-02-11T22:29:39.812Z,99451.89
2023-02-11T22:32:08.014Z,99448.27
2023-02-11T22:34:37.252Z,99448.15
2023-02-11T22:37:07.751Z,99442.02
2023-02-11T22:39:36.425Z,99441.07
2023-02-11T22:42:07.252Z,99443.42
2023-02-11T22:44:37.316Z,99445.13
2023-02-11T22:47:06.332Z,99443.86
2023-02-11T22:49:35.964Z,99448.35
2023-02-11T22:52:04.536Z,99446.27
2023-02-11T22:54:33.707Z,99443.17
2023-02-11T22:57:05.285Z,99435.29
2023-02-11T22:59:33.809Z,99444.14
2023-02-11T23:02:02.068Z,99444.48
2023-02-11T23:04:30.934Z,99445.46
2023-02-11T23:06:59.854Z,99444.13
2023-02-11T23:09:28.159Z,99443.20
2023-02-11T23:11:58.405Z,99444.02
2023-02-11T23:14:26.821Z,99448.30
2023-02-11T23:16:55.639Z,99443.16
2023-02-11T23:19:24.721Z,99447.61
2023-02-11T23:21:53.477Z,99446.71
2023-02-11T23:24:22.196Z,99447.82
2023-02-11T23:26:50.771Z,99451.91
2023-02-11T23:29:19.345Z,99456.30
2023-02-11T23:31:48.104Z,99466.32
2023-02-11T23:34:25.357Z,99474.79
2023-02-11T23:36:54.319Z,99488.38
2023-02-11T23:39:25.455Z,99485.35
2023-02-11T23:41:59.094Z,99497.76
2023-02-11T23:44:28.121Z,99508.08
2023-02-11T23:46:57.257Z,99518.05
2023-02-11T23:49:26.212Z,99524.30
2023-02-11T23:51:58.346Z,99537.87
2023-02-11T23:54:29.674Z,99544.90
2023-02-11T23:56:58.060Z,99553.09
2023-02-11T23:59:26.399Z,99556.10
